createdAt,value
2018-04-06T00:01:24.468Z,95.30
2018-04-06T00:03:52.598Z,95.30
2018-04-06T00:06:21.557Z,95.00
2018-04-06T00:08:49.703Z,95.00
2018-04-06T00:11:17.867Z,95.10
2018-04-06T00:13:46.051Z,94.80
2018-04-06T00:16:14.923Z,95.20
2018-04-06T00:18:43.075Z,95.20
2018-04-06T00:21:11.158Z,95.30
2018-04-06T00:23:39.291Z,95.20
2018-04-06T00:26:08.153Z,95.20
2018-04-06T00:28:36.286Z,95.20
2018-04-06T00:31:05.153Z,95.10
2018-04-06T00:33:33.246Z,95.00
2018-04-06T00:36:01.337Z,95.40
2018-04-06T00:38:29.492Z,95.60
2018-04-06T00:40:57.616Z,96.00
2018-04-06T00:43:26.526Z,95.50
2018-04-06T00:45:54.645Z,95.40
2018-04-06T00:48:22.808Z,95.50
2018-04-06T00:50:51.721Z,96.00
2018-04-06T00:53:31.818Z,96.00
2018-04-06T00:55:59.989Z,96.00
2018-04-06T00:58:28.164Z,95.80
2018-04-06T01:00:56.292Z,95.90
2018-04-06T01:03:24.459Z,95.80
2018-04-06T01:05:52.542Z,96.20
2018-04-06T01:08:20.701Z,96.00
2018-04-06T01:10:48.813Z,96.00
2018-04-06T01:13:16.964Z,95.90
2018-04-06T01:15:45.845Z,96.30
2018-04-06T01:18:14.205Z,96.30
2018-04-06T01:20:42.351Z,96.00
2018-04-06T01:23:11.239Z,96.20
2018-04-06T01:25:40.122Z,96.10
2018-04-06T01:28:08.253Z,96.10
2018-04-06T01:30:36.393Z,96.00
2018-04-06T01:33:04.476Z,96.10
2018-04-06T01:35:32.602Z,96.50
2018-04-06T01:38:00.691Z,96.50
2018-04-06T01:40:28.794Z,96.60
2018-04-06T01:42:56.882Z,96.60
2018-04-06T01:45:25.014Z,96.40
2018-04-06T01:47:53.901Z,96.30
2018-04-06T01:50:22.017Z,96.20
2018-04-06T01:52:50.880Z,96.40
2018-04-06T01:55:18.998Z,96.40
2018-04-06T01:57:47.883Z,96.70
2018-04-06T02:00:16.044Z,96.60
2018-04-06T02:02:44.155Z,96.60
2018-04-06T02:05:12.297Z,96.70
2018-04-06T02:07:40.491Z,97.00
2018-04-06T02:10:08.625Z,96.80
2018-04-06T02:12:37.495Z,97.00
2018-04-06T02:15:05.620Z,97.00
2018-04-06T02:17:34.517Z,96.80
2018-04-06T02:20:03.387Z,96.80
2018-04-06T02:22:31.477Z,96.80
2018-04-06T02:24:59.622Z,96.80
2018-04-06T02:27:27.820Z,96.90
2018-04-06T02:29:55.949Z,97.10
2018-04-06T02:32:24.043Z,97.40
2018-04-06T02:34:52.909Z,96.70
2018-04-06T02:37:21.045Z,96.70
2018-04-06T02:39:49.914Z,96.90
2018-04-06T02:42:18.037Z,96.90
2018-04-06T02:44:46.140Z,96.90
2018-04-06T02:47:14.292Z,96.90
2018-04-06T02:49:43.195Z,97.50
2018-04-06T02:52:12.086Z,97.30
2018-04-06T02:54:40.182Z,97.20
2018-04-06T02:57:09.065Z,97.20
2018-04-06T02:59:37.172Z,97.20
2018-04-06T03:02:06.118Z,97.10
2018-04-06T03:04:34.958Z,97.30
2018-04-06T03:07:03.089Z,97.20
2018-04-06T03:09:31.311Z,97.40
2018-04-06T03:11:59.412Z,97.40
2018-04-06T03:14:27.517Z,97.40
2018-04-06T03:16:56.481Z,97.30
2018-04-06T03:19:24.594Z,97.30
2018-04-06T03:21:52.690Z,97.40
2018-04-06T03:24:20.839Z,97.30
2018-04-06T03:26:48.961Z,97.30
2018-04-06T03:29:17.895Z,97.60
2018-04-06T03:31:46.061Z,97.60
2018-04-06T03:34:14.973Z,97.50
2018-04-06T03:36:43.878Z,97.40
2018-04-06T03:39:12.745Z,97.40
2018-04-06T03:41:40.861Z,97.40
2018-04-06T03:44:09.067Z,97.50
2018-04-06T03:46:37.203Z,97.50
2018-04-06T03:49:05.405Z,97.50
2018-04-06T03:51:33.533Z,97.50
2018-04-06T03:54:01.661Z,97.50
2018-04-06T03:56:29.793Z,97.50
2018-04-06T03:58:57.932Z,97.50
2018-04-06T04:01:26.032Z,97.50
2018-04-06T04:03:54.178Z,97.50
2018-04-06T04:06:22.425Z,97.50
2018-04-06T04:08:51.361Z,97.50
2018-04-06T04:11:19.490Z,97.50
2018-04-06T04:13:47.629Z,97.80
2018-04-06T04:16:15.770Z,97.70
2018-04-06T04:18:43.889Z,97.70
2018-04-06T04:21:12.002Z,97.80
2018-04-06T04:23:40.142Z,97.90
2018-04-06T04:26:09.475Z,97.90
2018-04-06T04:28:37.627Z,97.90
2018-04-06T04:31:05.812Z,97.90
2018-04-06T04:33:33.977Z,98.00
2018-04-06T04:36:02.101Z,97.90
2018-04-06T04:38:30.992Z,97.80
2018-04-06T04:40:59.138Z,97.80
2018-04-06T04:43:27.247Z,97.90
2018-04-06T04:45:55.364Z,98.00
2018-04-06T04:48:23.600Z,97.90
2018-04-06T04:50:51.704Z,98.00
2018-04-06T04:53:19.864Z,97.90
2018-04-06T04:55:48.716Z,98.10
2018-04-06T04:58:17.617Z,98.10
2018-04-06T05:00:46.521Z,98.00
2018-04-06T05:03:15.420Z,98.10
2018-04-06T05:05:43.596Z,98.00
2018-04-06T05:08:11.731Z,98.20
2018-04-06T05:10:39.890Z,98.30
2018-04-06T05:13:08.036Z,98.40
2018-04-06T05:15:36.189Z,98.30
2018-04-06T05:18:04.285Z,98.40
2018-04-06T05:20:32.410Z,98.50
2018-04-06T05:23:01.277Z,99.10
2018-04-06T05:25:29.387Z,99.10
2018-04-06T05:27:57.561Z,99.60
2018-04-06T05:30:25.662Z,99.20
2018-04-06T05:32:53.754Z,99.20
2018-04-06T05:35:21.869Z,98.80
2018-04-06T05:37:50.717Z,96.50
2018-04-06T05:40:18.872Z,96.50
2018-04-06T05:42:46.970Z,96.60
2018-04-06T05:45:15.111Z,96.10
2018-04-06T05:47:44.043Z,94.90
2018-04-06T05:50:12.204Z,94.90
2018-04-06T05:52:40.319Z,93.60
2018-04-06T05:55:08.448Z,92.10
2018-04-06T05:57:36.551Z,92.60
2018-04-06T06:00:05.477Z,90.40
2018-04-06T06:02:34.309Z,87.70
2018-04-06T06:05:02.390Z,87.70
2018-04-06T06:07:30.517Z,87.40
2018-04-06T06:09:58.654Z,84.40
2018-04-06T06:12:26.748Z,81.10
2018-04-06T06:14:54.864Z,79.00
2018-04-06T06:17:22.973Z,75.70
2018-04-06T06:19:51.847Z,74.20
2018-04-06T06:22:20.011Z,74.10
2018-04-06T06:24:48.137Z,70.50
2018-04-06T06:27:16.233Z,69.60
2018-04-06T06:29:45.107Z,69.20
2018-04-06T06:32:13.254Z,69.10
2018-04-06T06:34:41.374Z,71.00
2018-04-06T06:37:09.508Z,70.00
2018-04-06T06:39:37.626Z,69.50
2018-04-06T06:42:05.761Z,67.90
2018-04-06T06:44:33.846Z,70.40
2018-04-06T06:47:02.145Z,70.60
2018-04-06T06:49:31.042Z,67.70
2018-04-06T06:51:59.956Z,69.30
2018-04-06T06:54:28.070Z,69.30
2018-04-06T06:56:56.192Z,68.70
2018-04-06T06:59:24.616Z,64.00
2018-04-06T07:01:52.758Z,60.30
2018-04-06T07:04:20.859Z,58.90
2018-04-06T07:06:48.984Z,56.70
2018-04-06T07:09:17.132Z,56.00
2018-04-06T07:11:45.254Z,56.10
2018-04-06T07:14:13.393Z,60.10
2018-04-06T07:16:41.509Z,60.50
2018-04-06T07:19:09.696Z,61.00
2018-04-06T07:21:38.614Z,65.80
2018-04-06T07:24:06.736Z,65.80
2018-04-06T07:26:34.892Z,67.50
2018-04-06T07:29:02.981Z,69.60
2018-04-06T07:31:31.137Z,69.30
2018-04-06T07:34:00.003Z,67.70
2018-04-06T07:36:28.206Z,67.60
2018-04-06T07:38:56.300Z,64.10
2018-04-06T07:41:25.164Z,61.80
2018-04-06T07:43:53.248Z,61.80
2018-04-06T07:46:21.440Z,60.40
2018-04-06T07:48:49.528Z,56.30
2018-04-06T07:51:17.664Z,53.80
2018-04-06T07:53:45.785Z,56.90
2018-04-06T07:56:13.896Z,53.60
2018-04-06T07:58:42.000Z,53.20
2018-04-06T08:01:10.917Z,52.00
2018-04-06T08:03:39.777Z,51.40
2018-04-06T08:06:07.885Z,51.50
2018-04-06T08:08:35.994Z,53.10
2018-04-06T08:11:04.106Z,53.60
2018-04-06T08:13:32.246Z,55.30
2018-04-06T08:16:01.138Z,52.50
2018-04-06T08:18:29.268Z,52.40
2018-04-06T08:20:58.031Z,54.40
2018-04-06T08:23:26.212Z,53.30
2018-04-06T08:25:54.366Z,51.60
2018-04-06T08:28:22.462Z,50.80
2018-04-06T08:30:50.567Z,52.40
2018-04-06T08:33:18.706Z,51.20
2018-04-06T08:35:46.805Z,53.10
2018-04-06T08:38:14.956Z,51.40
2018-04-06T08:40:43.069Z,52.30
2018-04-06T08:43:11.184Z,55.60
2018-04-06T08:45:39.274Z,54.90
2018-04-06T08:48:07.455Z,49.40
2018-04-06T08:50:35.541Z,49.70
2018-04-06T08:53:03.632Z,48.30
2018-04-06T08:55:31.789Z,48.10
2018-04-06T08:57:59.872Z,49.70
2018-04-06T09:00:28.076Z,48.80
2018-04-06T09:02:56.222Z,46.70
2018-04-06T09:05:24.320Z,46.10
2018-04-06T09:07:52.477Z,46.90
2018-04-06T09:10:21.328Z,47.00
2018-04-06T09:12:49.428Z,46.30
2018-04-06T09:15:19.221Z,45.00
2018-04-06T09:17:47.353Z,45.00
2018-04-06T09:20:15.421Z,44.20
2018-04-06T09:22:43.578Z,45.10
2018-04-06T09:25:11.719Z,44.20
2018-04-06T09:27:39.818Z,41.10
2018-04-06T09:30:08.066Z,42.40
2018-04-06T09:32:36.241Z,45.10
2018-04-06T09:35:04.345Z,47.00
2018-04-06T09:37:34.004Z,44.90
2018-04-06T09:40:02.102Z,45.40
2018-04-06T09:42:30.242Z,43.40
2018-04-06T09:44:58.577Z,44.60
2018-04-06T09:47:27.196Z,45.50
2018-04-06T09:49:55.319Z,44.20
2018-04-06T09:52:24.225Z,43.80
2018-04-06T09:54:53.093Z,44.90
2018-04-06T09:57:21.214Z,44.80
2018-04-06T09:59:49.370Z,42.70
2018-04-06T10:02:17.471Z,46.20
2018-04-06T10:04:45.593Z,45.30
2018-04-06T10:07:13.714Z,44.60
2018-04-06T10:09:41.865Z,45.20
2018-04-06T10:12:10.043Z,43.30
2018-04-06T10:14:38.881Z,42.50
2018-04-06T10:17:07.044Z,42.40
2018-04-06T10:19:35.409Z,41.30
2018-04-06T10:22:04.385Z,43.70
2018-04-06T10:24:32.423Z,43.60
2018-04-06T10:27:00.512Z,42.20
2018-04-06T10:29:28.633Z,43.00
2018-04-06T10:31:56.725Z,40.60
2018-04-06T10:34:25.076Z,39.60
2018-04-06T10:36:53.168Z,40.60
2018-04-06T10:39:21.296Z,40.40
2018-04-06T10:41:49.449Z,39.80
2018-04-06T10:44:17.512Z,40.50
2018-04-06T10:46:45.673Z,40.40
2018-04-06T10:49:13.740Z,39.70
2018-04-06T10:51:41.908Z,37.90
2018-04-06T10:54:10.039Z,39.80
2018-04-06T10:56:38.910Z,38.20
2018-04-06T10:59:07.007Z,38.10
2018-04-06T11:01:35.136Z,39.70
2018-04-06T11:04:03.235Z,38.90
2018-04-06T11:06:31.346Z,38.80
2018-04-06T11:08:59.442Z,37.60
2018-04-06T11:11:27.504Z,38.20
2018-04-06T11:13:55.596Z,37.90
2018-04-06T11:16:23.887Z,37.20
2018-04-06T11:18:51.963Z,37.50
2018-04-06T11:21:20.082Z,38.50
2018-04-06T11:23:48.936Z,38.70
2018-04-06T11:26:17.084Z,38.70
2018-04-06T11:28:45.332Z,39.00
2018-04-06T11:31:13.432Z,39.60
2018-04-06T11:33:42.336Z,40.90
2018-04-06T11:36:10.482Z,37.50
2018-04-06T11:38:38.602Z,39.00
2018-04-06T11:41:06.730Z,37.90
2018-04-06T11:43:34.885Z,36.70
2018-04-06T11:46:03.776Z,35.70
2018-04-06T11:48:31.904Z,35.00
2018-04-06T11:51:00.029Z,34.60
2018-04-06T11:53:28.195Z,35.80
2018-04-06T11:55:56.333Z,35.40
2018-04-06T11:58:25.343Z,34.80
2018-04-06T12:00:54.198Z,31.30
2018-04-06T12:03:22.289Z,31.20
2018-04-06T12:05:50.385Z,31.10
2018-04-06T12:08:19.256Z,31.10
2018-04-06T12:10:47.415Z,30.80
2018-04-06T12:13:15.509Z,32.60
2018-04-06T12:18:12.988Z,33.30
2018-04-06T12:20:41.996Z,34.30
2018-04-06T12:23:10.392Z,34.30
2018-04-06T12:25:38.596Z,34.00
2018-04-06T12:28:06.810Z,33.80
2018-04-06T12:30:34.906Z,33.70
2018-04-06T12:33:02.984Z,32.80
2018-04-06T12:35:31.109Z,34.20
2018-04-06T12:38:00.065Z,35.90
2018-04-06T12:40:28.989Z,34.20
2018-04-06T12:42:57.090Z,32.80
2018-04-06T12:45:26.673Z,33.00
2018-04-06T12:47:54.780Z,33.00
2018-04-06T12:50:22.883Z,32.50
2018-04-06T12:52:51.725Z,33.00
2018-04-06T12:55:19.793Z,33.00
2018-04-06T12:57:47.949Z,32.00
2018-04-06T13:00:16.104Z,32.90
2018-04-06T13:02:44.234Z,32.80
2018-04-06T13:05:12.416Z,33.50
2018-04-06T13:07:41.263Z,31.20
2018-04-06T13:10:09.358Z,31.10
2018-04-06T13:12:38.286Z,33.90
2018-04-06T13:15:06.435Z,33.90
2018-04-06T13:17:34.591Z,33.60
2018-04-06T13:20:02.657Z,32.70
2018-04-06T13:22:31.640Z,32.80
2018-04-06T13:24:59.776Z,31.80
2018-04-06T13:27:27.876Z,31.80
2018-04-06T13:29:55.969Z,32.10
2018-04-06T13:32:24.061Z,34.20
2018-04-06T13:34:52.156Z,33.70
2018-04-06T13:37:20.297Z,35.50
2018-04-06T13:39:48.459Z,34.20
2018-04-06T13:42:16.794Z,34.00
2018-04-06T13:44:44.891Z,33.40
2018-04-06T13:47:13.025Z,32.90
2018-04-06T13:49:41.129Z,33.90
2018-04-06T13:52:09.282Z,33.00
2018-04-06T13:54:37.369Z,33.50
2018-04-06T13:57:05.531Z,34.20
2018-04-06T13:59:33.607Z,33.00
2018-04-06T14:02:01.746Z,33.60
2018-04-06T14:04:29.867Z,34.50
2018-04-06T14:06:58.030Z,34.80
2018-04-06T14:09:26.177Z,35.50
2018-04-06T14:11:54.236Z,33.00
2018-04-06T14:14:22.347Z,32.10
2018-04-06T14:16:50.478Z,33.40
2018-04-06T14:19:18.714Z,32.80
2018-04-06T14:21:47.604Z,34.40
2018-04-06T14:24:15.678Z,34.50
2018-04-06T14:26:43.813Z,36.00
2018-04-06T14:29:12.708Z,38.70
2018-04-06T14:31:40.808Z,38.60
2018-04-06T14:34:09.657Z,39.00
2018-04-06T14:36:37.759Z,39.00
2018-04-06T14:39:05.870Z,39.70
2018-04-06T14:41:34.758Z,41.40
2018-04-06T14:44:02.886Z,41.20
2018-04-06T14:46:31.033Z,42.10
2018-04-06T14:49:00.235Z,42.10
2018-04-06T14:51:28.442Z,42.50
2018-04-06T14:53:57.434Z,42.90
2018-04-06T14:56:25.525Z,42.80
2018-04-06T14:58:54.434Z,43.00
2018-04-06T15:01:22.585Z,42.80
2018-04-06T15:03:50.697Z,42.60
2018-04-06T15:06:18.818Z,42.30
2018-04-06T15:08:47.754Z,43.10
2018-04-06T15:11:15.871Z,43.10
2018-04-06T15:13:43.989Z,43.20
2018-04-06T15:16:12.172Z,42.90
2018-04-06T15:18:40.234Z,42.30
2018-04-06T15:21:09.104Z,42.00
2018-04-06T15:23:37.227Z,41.90
2018-04-06T15:26:05.300Z,41.50
2018-04-06T15:28:33.414Z,41.60
2018-04-06T15:31:01.547Z,41.10
2018-04-06T15:33:29.669Z,41.40
2018-04-06T15:35:58.537Z,40.60
2018-04-06T15:38:26.640Z,40.60
2018-04-06T15:40:54.745Z,40.40
2018-04-06T15:43:23.141Z,40.40
2018-04-06T15:45:55.093Z,40.80
2018-04-06T15:48:20.129Z,40.60
2018-04-06T15:50:49.005Z,40.30
2018-04-06T15:53:17.121Z,39.70
2018-04-06T15:55:45.278Z,40.90
2018-04-06T15:58:14.153Z,41.40
2018-04-06T16:00:42.253Z,42.00
2018-04-06T16:03:10.366Z,41.00
2018-04-06T16:05:39.324Z,41.00
2018-04-06T16:08:07.419Z,41.00
2018-04-06T16:10:35.514Z,41.10
2018-04-06T16:13:03.713Z,41.70
2018-04-06T16:15:31.910Z,41.60
2018-04-06T16:18:01.081Z,42.70
2018-04-06T16:20:29.361Z,42.40
2018-04-06T16:22:57.441Z,42.50
2018-04-06T16:25:25.525Z,42.20
2018-04-06T16:27:53.651Z,41.80
2018-04-06T16:30:21.754Z,42.10
2018-04-06T16:32:50.625Z,42.60
2018-04-06T16:35:18.711Z,42.60
2018-04-06T16:37:46.829Z,42.40
2018-04-06T16:40:15.735Z,42.70
2018-04-06T16:42:44.666Z,42.60
2018-04-06T16:45:12.739Z,42.60
2018-04-06T16:47:40.870Z,43.20
2018-04-06T16:50:08.969Z,43.60
2018-04-06T16:52:37.065Z,43.40
2018-04-06T16:55:05.984Z,44.40
2018-04-06T16:57:34.856Z,44.10
2018-04-06T17:00:02.986Z,44.00
2018-04-06T17:02:31.105Z,43.80
2018-04-06T17:04:59.543Z,43.80
2018-04-06T17:07:29.365Z,44.20
2018-04-06T17:09:57.491Z,44.10
2018-04-06T17:12:25.659Z,44.50
2018-04-06T17:14:53.791Z,44.60
2018-04-06T17:17:21.887Z,44.90
2018-04-06T17:19:50.082Z,45.30
2018-04-06T17:22:18.945Z,45.50
2018-04-06T17:24:47.055Z,45.80
2018-04-06T17:27:15.166Z,46.20
2018-04-06T17:29:44.173Z,46.60
2018-04-06T17:32:12.307Z,46.60
2018-04-06T17:34:40.407Z,46.90
2018-04-06T17:37:08.500Z,47.00
2018-04-06T17:39:36.612Z,47.20
2018-04-06T17:42:05.470Z,47.90
2018-04-06T17:44:33.563Z,47.90
2018-04-06T17:47:01.672Z,48.20
2018-04-06T17:49:29.843Z,48.30
2018-04-06T17:51:57.988Z,48.90
2018-04-06T17:54:26.132Z,49.20
2018-04-06T17:56:54.237Z,49.10
2018-04-06T17:59:23.107Z,49.80
2018-04-06T18:01:51.203Z,49.70
2018-04-06T18:04:19.330Z,49.80
2018-04-06T18:06:47.433Z,50.00
2018-04-06T18:09:15.659Z,50.30
2018-04-06T18:11:43.731Z,50.20
2018-04-06T18:14:11.820Z,50.60
2018-04-06T18:16:39.913Z,51.00
2018-04-06T18:19:08.110Z,51.10
2018-04-06T18:21:36.234Z,51.30
2018-04-06T18:24:04.355Z,51.60
2018-04-06T18:26:32.503Z,52.00
2018-04-06T18:29:00.620Z,51.90
2018-04-06T18:31:28.724Z,52.30
2018-04-06T18:33:56.843Z,52.60
2018-04-06T18:36:25.820Z,52.80
2018-04-06T18:38:54.019Z,52.80
2018-04-06T18:41:22.112Z,52.80
2018-04-06T18:43:51.034Z,52.80
2018-04-06T18:46:19.213Z,52.70
2018-04-06T18:48:47.313Z,52.90
2018-04-06T18:51:15.540Z,52.70
2018-04-06T18:53:43.629Z,53.10
2018-04-06T18:56:11.767Z,53.30
2018-04-06T18:58:39.889Z,53.30
2018-04-06T19:01:08.022Z,53.40
2018-04-06T19:03:36.118Z,53.80
2018-04-06T19:06:04.241Z,54.20
2018-04-06T19:08:32.408Z,54.00
2018-04-06T19:11:00.611Z,53.90
2018-04-06T19:13:28.761Z,53.90
2018-04-06T19:15:57.649Z,54.80
2018-04-06T19:18:25.746Z,54.80
2018-04-06T19:20:53.845Z,54.60
2018-04-06T19:23:21.945Z,54.70
2018-04-06T19:25:50.060Z,55.00
2018-04-06T19:28:18.163Z,55.40
2018-04-06T19:30:47.049Z,56.40
2018-04-06T19:33:15.131Z,56.30
2018-04-06T19:35:44.105Z,56.70
2018-04-06T19:38:12.262Z,56.70
2018-04-06T19:40:40.360Z,57.00
2018-04-06T19:43:08.596Z,57.50
2018-04-06T19:45:36.741Z,57.50
2018-04-06T19:48:04.829Z,58.20
2018-04-06T19:50:32.935Z,59.60
2018-04-06T19:53:01.061Z,60.20
2018-04-06T19:55:29.921Z,60.90
2018-04-06T19:57:58.074Z,60.90
2018-04-06T20:00:26.168Z,61.20
2018-04-06T20:02:54.303Z,62.00
2018-04-06T20:05:22.441Z,62.30
2018-04-06T20:07:50.802Z,62.60
2018-04-06T20:10:19.653Z,63.00
2018-04-06T20:12:47.781Z,62.80
2018-04-06T20:15:16.645Z,63.50
2018-04-06T20:17:44.770Z,63.50
2018-04-06T20:20:13.657Z,64.40
2018-04-06T20:22:41.822Z,64.30
2018-04-06T20:25:09.981Z,64.80
2018-04-06T20:27:38.158Z,66.00
2018-04-06T20:30:06.223Z,66.60
2018-04-06T20:32:35.083Z,67.40
2018-04-06T20:35:03.195Z,67.30
2018-04-06T20:37:31.371Z,68.10
2018-04-06T20:39:59.451Z,67.40
2018-04-06T20:42:27.537Z,66.90
2018-04-06T20:44:55.700Z,66.60
2018-04-06T20:47:23.822Z,67.50
2018-04-06T20:49:52.752Z,68.10
2018-04-06T20:52:20.853Z,68.00
2018-04-06T20:54:48.952Z,68.10
2018-04-06T20:57:17.046Z,67.80
2018-04-06T20:59:45.156Z,67.90
2018-04-06T21:02:13.300Z,67.60
2018-04-06T21:04:41.398Z,67.80
2018-04-06T21:07:09.507Z,67.40
2018-04-06T21:09:37.594Z,67.40
2018-04-06T21:12:05.685Z,67.20
2018-04-06T21:14:33.771Z,67.20
2018-04-06T21:17:01.880Z,66.90
2018-04-06T21:19:29.987Z,67.50
2018-04-06T21:21:58.045Z,67.30
2018-04-06T21:24:26.916Z,67.80
2018-04-06T21:26:55.008Z,67.70
2018-04-06T21:29:23.140Z,68.00
2018-04-06T21:31:51.365Z,68.20
2018-04-06T21:34:19.516Z,67.60
2018-04-06T21:36:47.678Z,68.40
2018-04-06T21:39:15.741Z,68.30
2018-04-06T21:41:43.855Z,68.40
2018-04-06T21:44:12.004Z,68.10
2018-04-06T21:46:40.546Z,68.30
2018-04-06T21:49:08.659Z,68.10
2018-04-06T21:51:36.735Z,67.80
2018-04-06T21:54:04.857Z,67.80
2018-04-06T21:56:33.022Z,68.20
2018-04-06T21:59:01.160Z,68.50
2018-04-06T22:01:29.323Z,68.30
2018-04-06T22:03:57.501Z,68.70
2018-04-06T22:06:25.594Z,68.60
2018-04-06T22:08:53.690Z,69.20
2018-04-06T22:11:22.611Z,70.80
2018-04-06T22:13:50.726Z,70.60
2018-04-06T22:16:18.829Z,71.10
2018-04-06T22:18:47.152Z,70.30
2018-04-06T22:21:15.240Z,70.40
2018-04-06T22:23:44.199Z,71.90
2018-04-06T22:26:12.323Z,71.90
2018-04-06T22:28:41.191Z,73.80
2018-04-06T22:31:09.280Z,73.00
2018-04-06T22:33:37.370Z,73.10
2018-04-06T22:36:05.478Z,73.20
2018-04-06T22:38:35.367Z,75.00
2018-04-06T22:41:03.577Z,75.00
2018-04-06T22:43:31.708Z,75.60
2018-04-06T22:45:59.809Z,76.60
2018-04-06T22:48:27.888Z,77.70
2018-04-06T22:50:55.997Z,78.80
2018-04-06T22:53:24.161Z,79.20
2018-04-06T22:55:52.276Z,80.20
2018-04-06T22:58:20.378Z,81.10
2018-04-06T23:00:48.523Z,81.20
2018-04-06T23:03:16.606Z,82.20
2018-04-06T23:05:45.081Z,83.00
2018-04-06T23:08:14.369Z,84.80
2018-04-06T23:10:42.537Z,85.60
2018-04-06T23:13:10.640Z,85.90
2018-04-06T23:15:44.854Z,85.70
2018-04-06T23:18:12.948Z,86.60
2018-04-06T23:20:41.806Z,88.50
2018-04-06T23:23:09.972Z,88.40
2018-04-06T23:25:38.220Z,88.80
2018-04-06T23:28:06.331Z,90.00
2018-04-06T23:30:34.512Z,90.00
2018-04-06T23:33:02.820Z,90.10
2018-04-06T23:35:30.955Z,90.30
2018-04-06T23:37:59.052Z,90.60
2018-04-06T23:40:27.170Z,90.80
2018-04-06T23:42:55.254Z,91.00
2018-04-06T23:45:23.444Z,91.30
2018-04-06T23:47:51.660Z,91.30
2018-04-06T23:50:19.805Z,91.60
2018-04-06T23:52:47.942Z,91.80
2018-04-06T23:55:16.166Z,92.30
2018-04-06T23:57:45.059Z,92.40
